createdAt,value
2022-08-25T00:01:00.320Z,100337.85
2022-08-25T00:03:35.941Z,100335.08
2022-08-25T00:06:17.665Z,100335.48
2022-08-25T00:08:59.353Z,100333.46
2022-08-25T00:11:31.724Z,100333.80
2022-08-25T00:14:08.185Z,100333.27
2022-08-25T00:16:43.607Z,100334.84
2022-08-25T00:19:15.522Z,100335.26
2022-08-25T00:21:51.577Z,100336.53
2022-08-25T00:24:22.590Z,100331.89
2022-08-25T00:27:02.111Z,100333.90
2022-08-25T00:29:46.058Z,100333.45
2022-08-25T00:32:18.290Z,100330.59
2022-08-25T00:34:48.770Z,100330.55
2022-08-25T00:37:19.473Z,100332.25
2022-08-25T00:39:52.533Z,100332.38
2022-08-25T00:42:22.261Z,100334.36
2022-08-25T00:44:54.414Z,100335.88
2022-08-25T00:47:24.445Z,100333.63
2022-08-25T00:50:04.783Z,100325.84
2022-08-25T00:52:43.884Z,100330.23
2022-08-25T00:55:20.820Z,100329.79
2022-08-25T00:57:57.242Z,100329.16
2022-08-25T01:00:38.360Z,100331.15
2022-08-25T01:03:13.907Z,100330.89
2022-08-25T01:05:53.085Z,100330.49
2022-08-25T01:08:30.659Z,100336.41
2022-08-25T01:11:49.720Z,100340.52
2022-08-25T01:16:25.730Z,100342.58
2022-08-25T01:18:29.261Z,100343.83
2022-08-25T01:21:00.071Z,100338.94
2022-08-25T01:26:46.918Z,100337.38
2022-08-25T01:26:55.531Z,100331.38
2022-08-25T01:29:26.432Z,100333.50
2022-08-25T01:31:59.451Z,100330.52
2022-08-25T01:34:30.719Z,100333.02
2022-08-25T01:37:00.979Z,100332.21
2022-08-25T01:39:33.420Z,100331.66
2022-08-25T01:42:18.773Z,100330.48
2022-08-25T01:44:48.906Z,100332.35
2022-08-25T01:47:20.841Z,100332.69
2022-08-25T01:49:49.881Z,100337.45
2022-08-25T01:52:27.750Z,100343.16
2022-08-25T01:54:59.425Z,100342.36
2022-08-25T01:57:31.248Z,100337.84
2022-08-25T02:00:05.153Z,100334.27
2022-08-25T02:02:34.857Z,100327.98
2022-08-25T02:05:09.141Z,100320.91
2022-08-25T02:07:40.747Z,100317.94
2022-08-25T02:10:12.490Z,100314.17
2022-08-25T02:12:41.609Z,100310.13
2022-08-25T02:15:16.278Z,100311.48
2022-08-25T02:18:09.076Z,100313.94
2022-08-25T02:20:39.098Z,100316.02
2022-08-25T02:23:09.664Z,100318.02
2022-08-25T02:25:47.089Z,100318.83
2022-08-25T02:28:16.969Z,100316.56
2022-08-25T02:30:48.156Z,100317.34
2022-08-25T02:33:20.594Z,100318.33
2022-08-25T02:35:58.391Z,100318.41
2022-08-25T02:38:34.258Z,100318.76
2022-08-25T02:45:17.822Z,100314.42
2022-08-25T02:47:50.331Z,100315.39
2022-08-25T02:51:33.763Z,100315.15
2022-08-25T02:54:11.687Z,100315.11
2022-08-25T02:56:42.254Z,100313.44
2022-08-25T02:59:15.006Z,100311.80
2022-08-25T03:01:50.031Z,100308.06
2022-08-25T03:04:24.949Z,100305.64
2022-08-25T03:06:56.359Z,100302.59
2022-08-25T03:09:27.050Z,100298.70
2022-08-25T03:11:57.320Z,100304.80
2022-08-25T03:14:27.848Z,100300.59
2022-08-25T03:16:59.198Z,100298.98
2022-08-25T03:19:29.610Z,100294.05
2022-08-25T03:22:00.636Z,100292.22
2022-08-25T03:24:31.780Z,100292.99
2022-08-25T03:27:01.510Z,100293.21
2022-08-25T03:29:33.036Z,100295.94
2022-08-25T03:32:08.363Z,100294.52
2022-08-25T03:34:39.240Z,100295.11
2022-08-25T03:37:11.545Z,100299.46
2022-08-25T03:39:43.610Z,100301.83
2022-08-25T03:42:12.935Z,100300.81
2022-08-25T03:44:43.403Z,100300.62
2022-08-25T03:47:15.265Z,100300.23
2022-08-25T03:49:46.634Z,100292.67
2022-08-25T03:52:17.824Z,100296.84
2022-08-25T03:54:48.296Z,100299.84
2022-08-25T03:57:25.952Z,100299.74
2022-08-25T04:00:01.004Z,100298.86
2022-08-25T04:02:33.678Z,100301.70
2022-08-25T04:05:05.108Z,100301.30
2022-08-25T04:07:35.685Z,100302.48
2022-08-25T04:18:43.855Z,100299.92
2022-08-25T04:21:25.658Z,100303.18
2022-08-25T04:35:10.154Z,100315.33
2022-08-25T04:37:39.249Z,100317.61
2022-08-25T04:40:10.967Z,100315.31
2022-08-25T04:42:41.261Z,100315.05
2022-08-25T04:45:11.012Z,100312.52
2022-08-25T04:47:40.839Z,100313.23
2022-08-25T04:50:10.649Z,100316.24
2022-08-25T04:52:39.779Z,100314.52
2022-08-25T04:55:09.778Z,100317.80
2022-08-25T04:57:46.672Z,100319.32
2022-08-25T05:00:18.267Z,100318.01
2022-08-25T05:02:47.388Z,100319.39
2022-08-25T05:05:17.198Z,100317.83
2022-08-25T05:07:47.216Z,100315.27
2022-08-25T05:10:16.503Z,100318.13
2022-08-25T05:12:46.509Z,100314.77
2022-08-25T05:15:33.645Z,100319.41
2022-08-25T05:18:03.549Z,100319.48
2022-08-25T05:20:36.314Z,100320.42
2022-08-25T05:23:05.785Z,100321.26
2022-08-25T05:25:37.155Z,100317.88
2022-08-25T05:28:06.278Z,100313.20
2022-08-25T05:30:37.160Z,100312.34
2022-08-25T05:33:07.237Z,100313.48
2022-08-25T05:35:36.752Z,100314.36
2022-08-25T05:38:06.644Z,100316.82
2022-08-25T05:40:35.999Z,100319.29
2022-08-25T05:43:05.168Z,100321.94
2022-08-25T05:45:34.283Z,100323.10
2022-08-25T05:48:04.181Z,100321.61
2022-08-25T05:50:33.811Z,100325.86
2022-08-25T05:53:03.286Z,100324.98
2022-08-25T05:55:32.441Z,100332.88
2022-08-25T05:58:01.758Z,100329.84
2022-08-25T06:00:31.343Z,100324.83
2022-08-25T06:03:00.280Z,100332.25
2022-08-25T06:05:29.238Z,100335.27
2022-08-25T06:07:58.545Z,100334.61
2022-08-25T06:10:27.756Z,100330.48
2022-08-25T06:12:57.036Z,100336.06
2022-08-25T06:15:27.730Z,100336.02
2022-08-25T06:18:01.797Z,100333.58
2022-08-25T06:20:32.449Z,100331.00
2022-08-25T06:23:01.457Z,100333.45
2022-08-25T06:25:33.073Z,100337.36
2022-08-25T06:28:02.248Z,100339.12
2022-08-25T06:30:31.437Z,100337.10
2022-08-25T06:33:00.425Z,100330.83
2022-08-25T06:35:29.592Z,100329.83
2022-08-25T06:37:58.482Z,100327.45
2022-08-25T06:40:29.061Z,100332.23
2022-08-25T06:42:59.370Z,100336.91
2022-08-25T06:45:28.236Z,100340.54
2022-08-25T06:47:59.890Z,100334.04
2022-08-25T06:50:29.064Z,100328.46
2022-08-25T06:52:57.994Z,100332.66
2022-08-25T06:55:27.132Z,100332.33
2022-08-25T06:57:56.040Z,100335.05
2022-08-25T07:00:30.669Z,100330.16
2022-08-25T07:03:01.097Z,100336.48
2022-08-25T07:05:42.908Z,100335.17
2022-08-25T07:08:12.533Z,100333.45
2022-08-25T07:10:41.769Z,100338.00
2022-08-25T07:13:17.154Z,100334.41
2022-08-25T07:15:46.180Z,100330.52
2022-08-25T07:18:15.221Z,100329.58
2022-08-25T07:20:44.185Z,100324.20
2022-08-25T07:23:13.205Z,100320.83
2022-08-25T07:25:42.224Z,100316.15
2022-08-25T07:28:11.723Z,100314.48
2022-08-25T07:30:41.380Z,100304.35
2022-08-25T07:33:11.599Z,100307.86
2022-08-25T07:35:43.691Z,100302.60
2022-08-25T07:38:16.649Z,100300.77
2022-08-25T07:40:54.442Z,100299.58
2022-08-25T07:43:25.901Z,100299.75
2022-08-25T07:45:55.491Z,100302.21
2022-08-25T07:48:24.415Z,100302.11
2022-08-25T07:50:53.279Z,100311.15
2022-08-25T07:53:22.738Z,100306.50
2022-08-25T07:55:51.936Z,100311.48
2022-08-25T07:58:22.872Z,100312.70
2022-08-25T08:00:52.729Z,100308.70
2022-08-25T08:03:42.182Z,100310.91
2022-08-25T08:06:13.987Z,100312.60
2022-08-25T08:08:45.134Z,100311.52
2022-08-25T08:11:17.869Z,100309.31
2022-08-25T08:13:48.628Z,100311.48
2022-08-25T08:16:22.321Z,100316.04
2022-08-25T08:18:51.322Z,100313.40
2022-08-25T08:21:23.055Z,100310.85
2022-08-25T08:23:58.155Z,100307.15
2022-08-25T08:26:48.198Z,100303.25
2022-08-25T08:29:19.670Z,100301.36
2022-08-25T08:31:51.896Z,100302.73
2022-08-25T08:34:24.939Z,100299.05
2022-08-25T08:36:54.433Z,100296.52
2022-08-25T08:39:23.832Z,100291.48
2022-08-25T08:42:18.184Z,100291.11
2022-08-25T08:45:17.000Z,100289.92
2022-08-25T08:47:52.801Z,100286.23
2022-08-25T08:50:34.800Z,100290.11
2022-08-25T08:53:13.560Z,100292.52
2022-08-25T08:55:52.688Z,100286.86
2022-08-25T08:58:26.298Z,100285.36
2022-08-25T09:00:58.481Z,100280.27
2022-08-25T09:03:36.895Z,100277.67
2022-08-25T09:06:13.762Z,100277.80
2022-08-25T09:08:44.794Z,100275.98
2022-08-25T09:11:23.647Z,100273.52
2022-08-25T09:14:16.211Z,100271.40
2022-08-25T09:16:56.040Z,100270.14
2022-08-25T09:20:06.305Z,100263.67
2022-08-25T09:23:01.195Z,100258.91
2022-08-25T09:25:53.355Z,100262.86
2022-08-25T09:28:30.136Z,100263.05
2022-08-25T09:31:02.605Z,100263.23
2022-08-25T09:33:35.701Z,100257.13
2022-08-25T09:36:08.885Z,100251.77
2022-08-25T09:38:38.980Z,100249.36
2022-08-25T09:41:35.005Z,100239.31
2022-08-25T09:44:05.129Z,100240.95
2022-08-25T09:46:35.358Z,100245.05
2022-08-25T09:49:16.131Z,100233.09
2022-08-25T09:51:45.147Z,100233.81
2022-08-25T09:54:25.479Z,100231.33
2022-08-25T09:57:05.002Z,100226.52
2022-08-25T09:59:38.369Z,100223.40
2022-08-25T10:02:23.613Z,100223.33
2022-08-25T10:04:53.273Z,100215.85
2022-08-25T10:07:27.086Z,100215.92
2022-08-25T10:09:59.723Z,100215.95
2022-08-25T10:12:37.063Z,100211.60
2022-08-25T10:15:29.589Z,100209.77
2022-08-25T10:18:21.955Z,100209.17
2022-08-25T10:21:07.629Z,100202.91
2022-08-25T10:23:40.860Z,100207.55
2022-08-25T10:26:23.396Z,100196.95
2022-08-25T10:29:06.001Z,100198.52
2022-08-25T10:31:41.291Z,100197.40
2022-08-25T10:34:22.069Z,100197.81
2022-08-25T10:37:00.375Z,100192.96
2022-08-25T10:39:40.886Z,100186.58
2022-08-25T10:42:37.948Z,100187.65
2022-08-25T10:45:51.034Z,100177.89
2022-08-25T10:48:40.434Z,100167.35
2022-08-25T10:51:27.214Z,100175.55
2022-08-25T10:54:06.290Z,100176.10
2022-08-25T10:56:41.141Z,100165.10
2022-08-25T10:59:31.124Z,100168.21
2022-08-25T11:13:30.674Z,100160.51
2022-08-25T11:16:16.987Z,100138.87
2022-08-25T11:18:54.236Z,100148.83
2022-08-25T11:21:30.547Z,100138.99
2022-08-25T11:24:11.086Z,100138.10
2022-08-25T11:26:53.526Z,100142.64
2022-08-25T11:29:36.535Z,100132.98
2022-08-25T11:32:07.460Z,100139.40
2022-08-25T11:34:42.439Z,100139.13
2022-08-25T11:37:22.987Z,100126.70
2022-08-25T11:40:20.455Z,100120.52
2022-08-25T11:43:00.853Z,100123.50
2022-08-25T11:45:54.790Z,100116.94
2022-08-25T11:48:35.482Z,100116.10
2022-08-25T11:51:07.812Z,100119.52
2022-08-25T11:53:42.176Z,100117.63
2022-08-25T11:56:32.824Z,100119.16
2022-08-25T11:59:04.911Z,100123.48
2022-08-25T12:02:09.983Z,100121.57
2022-08-25T12:04:45.166Z,100123.45
2022-08-25T12:07:24.050Z,100123.45
2022-08-25T12:10:14.465Z,100120.89
2022-08-25T12:13:21.462Z,100120.77
2022-08-25T12:16:00.148Z,100121.05
2022-08-25T12:18:50.324Z,100123.70
2022-08-25T12:21:35.500Z,100123.63
2022-08-25T12:24:22.555Z,100126.08
2022-08-25T12:26:58.313Z,100128.75
2022-08-25T12:29:35.461Z,100131.38
2022-08-25T12:32:25.786Z,100130.45
2022-08-25T12:35:18.930Z,100133.11
2022-08-25T12:38:05.667Z,100129.32
2022-08-25T12:40:39.886Z,100126.65
2022-08-25T12:43:24.883Z,100120.96
2022-08-25T12:46:15.867Z,100126.23
2022-08-25T12:49:10.046Z,100125.95
2022-08-25T12:52:09.359Z,100128.32
2022-08-25T12:55:02.627Z,100129.20
2022-08-25T12:57:45.141Z,100132.14
2022-08-25T13:06:35.491Z,100122.55
2022-08-25T13:09:43.865Z,100117.99
2022-08-25T13:12:20.351Z,100118.91
2022-08-25T13:14:54.859Z,100118.34
2022-08-25T13:17:29.817Z,100119.94
2022-08-25T13:20:24.724Z,100121.21
2022-08-25T13:23:00.942Z,100122.34
2022-08-25T13:25:33.109Z,100126.48
2022-08-25T13:28:06.400Z,100116.21
2022-08-25T13:30:40.917Z,100121.02
2022-08-25T13:33:22.414Z,100125.12
2022-08-25T13:36:16.170Z,100128.13
2022-08-25T13:38:48.266Z,100128.66
2022-08-25T13:41:29.166Z,100124.39
2022-08-25T13:44:01.864Z,100122.56
2022-08-25T13:46:35.449Z,100125.55
2022-08-25T13:49:08.878Z,100121.95
2022-08-25T13:51:51.058Z,100126.17
2022-08-25T13:54:30.222Z,100124.55
2022-08-25T13:57:11.928Z,100120.23
2022-08-25T13:59:46.512Z,100113.77
2022-08-25T14:02:44.025Z,100112.91
2022-08-25T14:05:16.941Z,100108.52
2022-08-25T14:08:03.814Z,100106.11
2022-08-25T14:10:46.206Z,100103.21
2022-08-25T14:13:31.363Z,100108.88
2022-08-25T14:16:12.294Z,100113.59
2022-08-25T14:18:49.422Z,100109.92
2022-08-25T14:21:22.857Z,100113.56
2022-08-25T14:23:54.433Z,100120.25
2022-08-25T14:26:26.723Z,100109.86
2022-08-25T14:28:57.054Z,100115.81
2022-08-25T14:31:30.764Z,100105.45
2022-08-25T14:34:05.795Z,100107.61
2022-08-25T14:36:59.558Z,100108.02
2022-08-25T14:39:37.162Z,100111.64
2022-08-25T14:42:08.467Z,100109.80
2022-08-25T14:44:38.880Z,100109.42
2022-08-25T14:47:10.173Z,100102.48
2022-08-25T14:49:45.493Z,100114.33
2022-08-25T14:52:22.659Z,100102.48
2022-08-25T14:54:56.888Z,100098.89
2022-08-25T14:57:38.107Z,100101.55
2022-08-25T15:00:20.802Z,100097.77
2022-08-25T15:03:08.069Z,100098.33
2022-08-25T15:05:40.164Z,100102.73
2022-08-25T15:08:34.606Z,100101.77
2022-08-25T15:11:09.070Z,100104.00
2022-08-25T15:13:49.171Z,100089.87
2022-08-25T15:16:35.199Z,100093.96
2022-08-25T15:19:07.331Z,100092.21
2022-08-25T15:21:39.396Z,100092.25
2022-08-25T15:24:22.071Z,100095.45
2022-08-25T15:27:01.042Z,100095.55
2022-08-25T15:29:50.204Z,100096.31
2022-08-25T15:32:20.630Z,100095.86
2022-08-25T15:34:51.064Z,100103.16
2022-08-25T15:37:20.858Z,100107.98
2022-08-25T15:39:50.504Z,100105.11
2022-08-25T15:42:21.963Z,100103.87
2022-08-25T15:44:53.442Z,100100.39
2022-08-25T15:47:24.108Z,100102.66
2022-08-25T15:50:04.681Z,100106.50
2022-08-25T15:52:46.490Z,100112.11
2022-08-25T15:55:19.887Z,100106.98
2022-08-25T15:57:49.996Z,100110.14
2022-08-25T16:00:21.454Z,100113.01
2022-08-25T16:02:51.909Z,100103.96
2022-08-25T16:05:25.769Z,100105.48
2022-08-25T16:07:56.031Z,100106.67
2022-08-25T16:10:30.430Z,100104.11
2022-08-25T16:13:04.676Z,100104.63
2022-08-25T16:15:35.985Z,100107.06
2022-08-25T16:18:11.916Z,100103.36
2022-08-25T16:20:45.746Z,100104.50
2022-08-25T16:23:25.454Z,100101.98
2022-08-25T16:25:54.973Z,100105.48
2022-08-25T16:28:25.804Z,100103.86
2022-08-25T16:30:56.592Z,100106.09
2022-08-25T16:33:33.414Z,100104.11
2022-08-25T16:36:12.507Z,100099.27
2022-08-25T16:38:43.667Z,100102.29
2022-08-25T16:41:34.081Z,100111.70
2022-08-25T16:44:07.468Z,100108.41
2022-08-25T16:46:42.662Z,100112.80
2022-08-25T16:49:16.277Z,100112.14
2022-08-25T16:51:46.117Z,100114.65
2022-08-25T16:54:36.797Z,100116.55
2022-08-25T16:57:06.928Z,100115.99
2022-08-25T16:59:43.851Z,100115.59
2022-08-25T17:02:16.583Z,100113.48
2022-08-25T17:04:48.819Z,100114.21
2022-08-25T17:07:23.859Z,100116.25
2022-08-25T17:10:12.837Z,100112.36
2022-08-25T17:12:49.430Z,100114.36
2022-08-25T17:15:25.354Z,100109.33
2022-08-25T17:17:57.294Z,100111.65
2022-08-25T17:20:26.659Z,100116.08
2022-08-25T17:22:57.950Z,100112.36
2022-08-25T17:25:41.214Z,100112.34
2022-08-25T17:28:14.176Z,100112.94
2022-08-25T17:30:44.348Z,100118.73
2022-08-25T17:33:15.186Z,100118.10
2022-08-25T17:35:49.100Z,100126.77
2022-08-25T17:38:20.736Z,100124.53
2022-08-25T17:41:16.927Z,100131.15
2022-08-25T17:43:47.954Z,100126.92
2022-08-25T17:46:18.687Z,100127.98
2022-08-25T17:48:48.251Z,100127.65
2022-08-25T17:51:18.173Z,100131.13
2022-08-25T17:53:48.730Z,100132.16
2022-08-25T17:56:20.017Z,100130.69
2022-08-25T17:58:50.192Z,100134.75
2022-08-25T18:01:22.422Z,100138.09
2022-08-25T18:03:52.234Z,100137.09
2022-08-25T18:10:55.494Z,100142.58
2022-08-25T18:13:26.679Z,100141.15
2022-08-25T18:20:09.579Z,100141.66
2022-08-25T18:25:03.830Z,100140.91
2022-08-25T18:27:27.907Z,100139.00
2022-08-25T18:30:38.258Z,100140.01
2022-08-25T18:34:10.548Z,100137.19
2022-08-25T18:52:48.106Z,100144.63
2022-08-25T18:55:42.644Z,100139.27
2022-08-25T18:59:42.371Z,100143.00
2022-08-25T19:03:13.202Z,100141.19
2022-08-25T19:06:32.193Z,100140.33
2022-08-25T19:09:16.515Z,100138.61
2022-08-25T19:11:50.021Z,100143.75
2022-08-25T19:14:44.068Z,100144.00
2022-08-25T19:17:20.984Z,100144.75
2022-08-25T19:24:39.758Z,100142.45
2022-08-25T19:24:59.562Z,100139.95
2022-08-25T19:32:55.481Z,100143.16
2022-08-25T19:35:38.873Z,100142.54
2022-08-25T19:42:47.916Z,100149.88
2022-08-25T19:45:00.769Z,100147.59
2022-08-25T19:46:14.604Z,100149.15
2022-08-25T19:53:15.846Z,100156.36
2022-08-25T19:55:47.228Z,100157.11
2022-08-25T20:09:41.001Z,100157.13
2022-08-25T20:12:35.051Z,100155.79
2022-08-25T20:15:09.711Z,100154.20
2022-08-25T20:18:24.554Z,100152.63
2022-08-25T20:21:13.080Z,100157.56
2022-08-25T20:24:11.361Z,100155.02
2022-08-25T20:26:43.067Z,100153.31
2022-08-25T20:29:33.077Z,100160.59
2022-08-25T20:32:55.798Z,100159.00
2022-08-25T20:35:47.987Z,100160.56
2022-08-25T20:38:24.832Z,100162.10
2022-08-25T20:41:48.466Z,100166.56
2022-08-25T20:44:24.206Z,100172.95
2022-08-25T20:50:32.682Z,100174.73
2022-08-25T20:53:10.254Z,100178.17
2022-08-25T20:55:55.354Z,100178.97
2022-08-25T20:58:48.988Z,100181.77
2022-08-25T21:01:40.080Z,100185.64
2022-08-25T21:07:42.482Z,100186.48
2022-08-25T21:10:14.540Z,100189.34
2022-08-25T21:12:44.742Z,100186.06
2022-08-25T21:15:17.908Z,100190.48
2022-08-25T21:17:52.623Z,100190.27
2022-08-25T21:20:25.240Z,100191.02
2022-08-25T21:22:54.864Z,100188.42
2022-08-25T21:29:03.832Z,100193.91
2022-08-25T21:31:34.733Z,100189.96
2022-08-25T21:34:07.096Z,100195.52
2022-08-25T21:36:37.833Z,100196.63
2022-08-25T21:39:12.022Z,100195.04
2022-08-25T21:41:43.770Z,100192.05
2022-08-25T21:44:14.747Z,100188.48
2022-08-25T21:46:54.199Z,100187.29
2022-08-25T21:49:26.327Z,100181.02
2022-08-25T21:52:00.510Z,100183.59
2022-08-25T21:54:32.517Z,100181.56
2022-08-25T21:57:05.099Z,100177.92
2022-08-25T21:59:40.650Z,100175.75
2022-08-25T22:02:13.552Z,100174.83
2022-08-25T22:04:47.131Z,100173.99
2022-08-25T22:07:19.489Z,100168.46
2022-08-25T22:09:57.225Z,100168.46
2022-08-25T22:12:28.963Z,100166.85
2022-08-25T22:15:00.647Z,100163.01
2022-08-25T22:17:31.992Z,100164.52
2022-08-25T22:20:02.011Z,100159.75
2022-08-25T22:22:31.447Z,100155.98
2022-08-25T22:25:01.208Z,100156.68
2022-08-25T22:27:32.783Z,100158.11
2022-08-25T22:30:06.153Z,100154.19
2022-08-25T22:32:40.174Z,100157.05
2022-08-25T22:35:12.763Z,100153.52
2022-08-25T22:37:45.140Z,100152.58
2022-08-25T22:40:15.798Z,100151.11
2022-08-25T22:42:50.291Z,100148.14
2022-08-25T22:45:21.396Z,100147.73
2022-08-25T22:47:51.969Z,100145.13
2022-08-25T22:50:22.903Z,100145.04
2022-08-25T22:52:52.898Z,100145.31
2022-08-25T22:55:24.478Z,100148.13
2022-08-25T22:57:59.207Z,100145.81
2022-08-25T23:00:31.579Z,100148.18
2022-08-25T23:03:02.790Z,100148.23
2022-08-25T23:05:40.621Z,100146.86
2022-08-25T23:08:11.808Z,100144.56
2022-08-25T23:10:47.736Z,100138.80
2022-08-25T23:13:34.177Z,100138.27
2022-08-25T23:16:06.203Z,100135.06
2022-08-25T23:18:43.070Z,100129.05
2022-08-25T23:21:38.231Z,100129.77
2022-08-25T23:24:13.532Z,100133.58
2022-08-25T23:26:51.174Z,100131.20
2022-08-25T23:29:24.391Z,100132.19
2022-08-25T23:31:55.039Z,100127.66
2022-08-25T23:34:26.367Z,100127.26
2022-08-25T23:36:55.894Z,100130.14
2022-08-25T23:39:25.144Z,100129.30
2022-08-25T23:41:54.155Z,100131.75
2022-08-25T23:44:24.779Z,100130.84
2022-08-25T23:46:59.384Z,100130.77
2022-08-25T23:49:32.689Z,100131.86
2022-08-25T23:52:04.003Z,100130.54
2022-08-25T23:54:33.624Z,100132.08
2022-08-25T23:57:02.955Z,100130.67
2022-08-25T23:59:36.415Z,100127.96
